Terminal Aerodrome Forecast
Issued by NWS

Home | Current Version | Previous Version | Text Only | Print | Product List | Glossary On
Versions: 1 2 3 4 5 6 7 8 9 10 11 12 13 14 15 16 17 18
000
FTUS44 KHGX 241128
TAFCXO
TAF
KCXO 241128Z 2412/2512 16004KT P6SM FEW250
     FM241600 17013G19KT P6SM SCT250
     FM250300 17009KT P6SM BKN025
     FM250900 20006KT P6SM SCT005 OVC015=

USA.gov is the U.S. government's official web portal to all federal, state and local government web resources and services.